Terminal Aerodrome Forecast
Issued by NWS Knoxville/Tri Cities, TN

Current Version | Previous Version | Text Only | Print | Product List | Glossary On
Versions: 1 2 3 4 5 6 7 8 9 10 11 12 13
000
FTUS44 KMRX 261120
TAFTYS
TAF
KTYS 261120Z 2612/2712 23006KT P6SM SCT050 BKN120
     FM261300 23009G16KT P6SM VCSH SCT050 BKN140
     FM262100 22006KT P6SM SCT060 BKN250=

USA.gov is the U.S. government's official web portal to all federal, state and local government web resources and services.